Relevés horaires St-Hubert (Belgique)


Relevés horaires à St-Hubert - Jeudi 19 Avr. 2018
Heure UTC1 Température [°C] Vent [km/h] Hum. [%] Pres.4 [hPa] Visi. [Km] Nébu. [octa] Préc.5 [mm] Cond.
2m. Res. Ros. Dir.2 Vit. Moy. Raf.3
23:00 15.8 15.8 7.8 S 1.9 1.9 3.7 59 1025.4(-0.4/3h) 45 0/8 -- --
22:00 15.6 15.6 7.1 SSE 1.9 1.9 3.7 57 1025.6(0.0/3h) 45 0/8 -- --
21:00 16.4 16.4 7.4 S 1.9 3.7 5.6 55 1025.6(0.3/3h) 45 0/8 -- --
20:00 16.0 16.0 7.2 S 1.9 3.7 5.6 56 1025.8(0.3/3h) 45 0/8 -- --
19:00 16.4 16.4 8.1 NNO 0.0 0.0 0.0 58 1025.4(0.0/3h) 45 0/8 -- --
18:00 20.5 20.5 8.4 NNO 0.0 0.0 0.0 46 1024.3(-0.3/3h) 40 0/8 0/12h
--
17:00 22.4 22.4 5.0 NNO 0.0 0.0 0.0 32 1024(-0.7/3h) 30 0/8 -- --
16:00 22.8 22.8 4.7 NNO 0.0 0.0 0.0 31 1024.1(-0.8/3h) 30 0/8 -- --
15:00 23.1 23.1 7.8 NNO 0.0 0.0 0.0 37 1024.1(-0.8/3h) 40 0/8 -- --
14:00 22.8 22.8 6.7 NNO 0.0 0.0 0.0 35 1024.6(-0.4/3h) 40 0/8 -- --
13:00 22.1 22.1 7.6 NNO 0.0 0.0 0.0 39 1025(-0.5/3h) 27 0/8 -- --
12:00 21.6 21.6 6.1 SE 7.4 11.1 16.7 36 1025.3(-0.5/3h) 30 0/8 0/6h
--
11:00 21.1 21.1 5.9 SE 7.4 9.3 16.7 37 1025.5(-0.5/3h) 26 0/8 -- --
10:00 20.4 20.4 6.2 SSE 5.6 11.1 16.7 40 1026(0.0/3h) 30 0/8 -- --
09:00 19.0 19.0 5.3 SE 9.3 11.1 16.7 41 1026.4(0.2/3h) 30 0/8 -- --
08:00 17.7 17.7 6.0 SE 7.4 9.3 14.8 46 1026.7(0.5/3h) 29 0/8 -- --
07:00 16.1 16 5.7 ESE 9.3 9.3 13.0 50 1027(0.3/3h) 29 0/8 -- --
06:00 14.5 14.1 4.7 ESE 9.3 13.0 18.5 52 1027.2(-0.2/3h) 35 0/8 0/12h
--
05:00 13.7 12.9 4.0 ESE 11.1 13.0 18.5 52 1027.1(-0.6/3h) 35 0/8 -- --
04:00 13.8 13 3.8 ESE 11.1 11.1 18.5 51 1027.2(-0.8/3h) 40 0/8 -- --
03:00 13.6 12.8 4.2 E 11.1 11.1 16.7 53 1027.6(-0.6/3h) 35 0/8 -- --
02:00 14.3 13.9 4.2 ESE 9.3 11.1 16.7 51 1027.6(-0.7/3h) 40 0/8 -- --
01:00 14.9 14.6 4.2 ESE 9.3 9.3 14.8 49 1027.8(-0.6/3h) 40 0/8 -- --
00:00 15.3 15.1 4.1 ESE 9.3 11.1 18.5 47 1027.9(-0.5/3h) 40 0/8 0/6h
0/24h
--

1 Coordinated Universal Time. Actuellement il est 18:00 locale et 16:00 UTC.

2 Le vent souffle depuis la direction indiquée vers la direction oposée.

3 Les rafales max. sont disponible 40 min après l'heure du relevé.

4 Pour les stations d'altitude (plus de 600m) le géopotentiel du niveau le plus proche de la pression obligatoire est indiqué.

5 Les stations disposant d'un diffuseur peuvent indiquer "trace". Cela signifie que des précipitations ont touchés le sol mais que la quantité est inférieure à 0.1 mm.

Récapitulatif de la journée
Température [°C] Vent [km/h] Ensoleillement4 [h] Precipitations totale5 [mm] Pression [Hpa]
Min1 Max.2 Moy.3 Max. Min Max.
13.0 23.4 6.3 18.5 0 h 0 min 0 1024.0 1027.9

1 Température minimale relevée entre 18:00 UTC la veille et 18:00 UTC le jour donné.

2 Température maximale relevée entre 06:00 UTC le jour donné et 06:00 UTC le lendemain.

3 Vent moyen de la journée basé sur les relevés horaires.

4 Ensoleillement en heures relevé entre 06:00 UTC la veille et 06:00 UTC le jour donné.

5 Précipitations totales tombées entre 06:00 UTC la jour donné et 06:00 UTC le lendemain.

Graphiques horaires